Time;durP1;ratioP1;P1;durP2;ratioP2;P2;SDS_P1;SDS_P2;PMS_P1;PMS_P2;Temp;Humidity;BMP_temperature;BMP_pressure;BME280_temperature;BME280_humidity;BME280_pressure;Samples;Min_cycle;Max_cycle;Signal;HPM_P1;HPM_P2
2021/08/21 00:01:29;;;;;;;;;;;14.70;99.90;;;;;;5091622;28;20222;-74
2021/08/21 00:03:54;;;;;;;;;;;14.70;99.90;;;;;;5071200;28;19920;-74
2021/08/21 00:06:20;;;;;;;;;;;14.50;99.90;;;;;;5074121;28;19915;-75
2021/08/21 00:08:45;;;;;;;;;;;14.40;99.90;;;;;;5086124;28;20019;-77
2021/08/21 00:11:11;;;;;;;;;;;14.30;99.90;;;;;;5087075;28;19924;-74
2021/08/21 00:13:36;;;;;;;;;;;14.20;99.90;;;;;;5088433;28;20377;-74
2021/08/21 00:16:02;;;;;;;;;;;14.20;99.90;;;;;;5087449;28;19917;-75
2021/08/21 00:18:28;;;;;;;;;;;14.10;99.90;;;;;;5091438;28;20220;-74
2021/08/21 00:20:53;;;;;;;;;;;14.00;99.90;;;;;;5091087;28;19913;-74
2021/08/21 00:23:19;;;;;;;;;;;14.00;99.90;;;;;;5087370;28;19916;-74
2021/08/21 00:25:44;;;;;;;;;;;14.10;99.90;;;;;;5093459;28;19998;-75
2021/08/21 00:28:10;;;;;;;;;;;14.10;99.90;;;;;;5088155;28;19912;-75
2021/08/21 00:30:35;;;;;;;;;;;14.10;99.90;;;;;;5090023;28;19923;-74
2021/08/21 00:33:01;;;;;;;;;;;14.20;99.90;;;;;;5094102;28;20281;-74
2021/08/21 00:35:27;;;;;;;;;;;14.30;99.90;;;;;;5092624;28;20026;-76
2021/08/21 00:37:52;;;;;;;;;;;14.30;99.90;;;;;;5085086;28;19923;-73
2021/08/21 00:40:18;;;;;;;;;;;14.40;99.90;;;;;;5089019;28;19969;-74
2021/08/21 00:42:44;;;;;;;;;;;14.30;99.90;;;;;;5089444;28;19916;-74
2021/08/21 00:45:10;;;;;;;;;;;14.30;99.90;;;;;;5091174;28;20315;-74
2021/08/21 00:47:36;;;;;;;;;;;14.20;99.90;;;;;;5074473;28;19916;-73
2021/08/21 00:50:02;;;;;;;;;;;14.20;99.90;;;;;;5092922;28;19961;-74
2021/08/21 00:52:29;;;;;;;;;;;14.10;99.90;;;;;;5074007;28;19916;-75
2021/08/21 00:54:55;;;;;;;;;;;14.10;99.90;;;;;;5094116;28;20350;-74
2021/08/21 00:57:21;;;;;;;;;;;14.10;99.90;;;;;;5090481;28;20341;-74
2021/08/21 00:59:48;;;;;;;;;;;14.10;99.90;;;;;;5094890;28;19912;-73
2021/08/21 01:02:15;;;;;;;;;;;14.10;99.90;;;;;;5074773;28;19912;-73
2021/08/21 01:04:42;;;;;;;;;;;14.20;99.90;;;;;;5067033;28;20530;-74
2021/08/21 01:07:08;;;;;;;;;;;14.20;99.90;;;;;;5074683;28;19912;-74
2021/08/21 01:09:38;;;;;;;;;;;14.20;99.90;;;;;;5075874;28;19947;-73
2021/08/21 01:12:07;;;;;;;;;;;14.20;99.90;;;;;;5084377;28;20239;-73
2021/08/21 01:14:33;;;;;;;;;;;14.20;99.90;;;;;;5092477;28;20005;-74
2021/08/21 01:16:59;;;;;;;;;;;14.20;99.90;;;;;;5073092;28;19908;-74
2021/08/21 01:19:25;;;;;;;;;;;14.20;99.90;;;;;;5073369;28;20226;-75
2021/08/21 01:21:50;;;;;;;;;;;14.10;99.90;;;;;;5091551;28;19919;-73
2021/08/21 01:24:16;;;;;;;;;;;14.10;99.90;;;;;;5082892;28;19916;-74
2021/08/21 01:26:55;;;;;;;;;;;14.00;99.90;;;;;;5091778;28;19990;-73
2021/08/21 01:29:21;;;;;;;;;;;14.00;99.90;;;;;;5092365;28;20226;-74
2021/08/21 01:31:47;;;;;;;;;;;14.00;99.90;;;;;;5089838;28;19927;-73
2021/08/21 01:34:13;;;;;;;;;;;14.00;99.90;;;;;;5091173;28;19966;-74
2021/08/21 01:36:39;;;;;;;;;;;13.90;99.90;;;;;;5061263;28;20319;-73
2021/08/21 01:39:05;;;;;;;;;;;13.90;99.90;;;;;;5078940;28;19916;-74
2021/08/21 01:41:31;;;;;;;;;;;13.90;99.90;;;;;;5088262;28;19966;-73
2021/08/21 01:43:56;;;;;;;;;;;14.00;99.90;;;;;;5078533;28;19927;-74
2021/08/21 01:46:23;;;;;;;;;;;14.00;99.90;;;;;;5087418;28;19912;-74
2021/08/21 01:48:48;;;;;;;;;;;14.00;99.90;;;;;;5069586;28;19920;-74
2021/08/21 01:51:15;;;;;;;;;;;14.00;99.90;;;;;;5087980;28;20353;-74
2021/08/21 01:53:40;;;;;;;;;;;14.00;99.90;;;;;;5092375;28;19912;-73
2021/08/21 01:56:06;;;;;;;;;;;14.00;99.90;;;;;;5091226;28;19970;-74
2021/08/21 01:58:31;;;;;;;;;;;14.00;99.90;;;;;;5087565;28;19958;-73
2021/08/21 02:00:58;;;;;;;;;;;14.00;99.90;;;;;;5088971;28;19926;-74
2021/08/21 02:03:25;;;;;;;;;;;14.10;99.90;;;;;;5091470;28;19920;-75
2021/08/21 02:05:51;;;;;;;;;;;14.10;99.90;;;;;;5090652;28;19912;-76
2021/08/21 02:08:17;;;;;;;;;;;14.00;99.90;;;;;;5075697;28;20342;-74
2021/08/21 02:10:43;;;;;;;;;;;14.00;99.90;;;;;;5090556;28;19916;-75
2021/08/21 02:13:08;;;;;;;;;;;14.00;99.90;;;;;;5072048;28;19920;-74
2021/08/21 02:15:34;;;;;;;;;;;13.90;99.90;;;;;;5093502;28;20291;-75
2021/08/21 02:17:59;;;;;;;;;;;13.90;99.90;;;;;;5088324;28;19916;-74
2021/08/21 02:20:25;;;;;;;;;;;13.90;99.90;;;;;;5073334;28;19962;-74
2021/08/21 02:22:51;;;;;;;;;;;13.90;99.90;;;;;;5084473;28;19986;-75
2021/08/21 02:25:17;;;;;;;;;;;13.90;99.90;;;;;;5092347;28;19961;-74
2021/08/21 02:27:45;;;;;;;;;;;13.90;99.90;;;;;;5088030;28;19973;-76
2021/08/21 02:30:12;;;;;;;;;;;13.90;99.90;;;;;;5085302;28;19924;-75
2021/08/21 02:32:38;;;;;;;;;;;13.90;99.90;;;;;;5088610;28;19919;-74
2021/08/21 02:35:03;;;;;;;;;;;13.90;99.90;;;;;;5090681;28;20327;-74
2021/08/21 02:37:29;;;;;;;;;;;14.00;99.90;;;;;;5085335;28;19921;-74
2021/08/21 02:39:55;;;;;;;;;;;14.00;99.90;;;;;;5088511;28;20344;-74
2021/08/21 02:42:20;;;;;;;;;;;14.00;99.90;;;;;;5090521;28;19923;-74
2021/08/21 02:44:46;;;;;;;;;;;14.00;99.90;;;;;;5088363;28;19927;-73
2021/08/21 02:47:12;;;;;;;;;;;14.10;99.90;;;;;;5092637;28;20254;-74
2021/08/21 02:49:37;;;;;;;;;;;14.10;99.90;;;;;;5095005;28;19920;-73
2021/08/21 02:52:03;;;;;;;;;;;14.10;99.90;;;;;;5085203;28;19927;-75
2021/08/21 02:54:28;;;;;;;;;;;14.20;99.90;;;;;;5093189;28;19923;-75
2021/08/21 02:56:54;;;;;;;;;;;14.20;99.90;;;;;;5096537;28;19916;-76
2021/08/21 02:59:20;;;;;;;;;;;14.20;99.90;;;;;;5094608;28;19927;-74
2021/08/21 03:01:45;;;;;;;;;;;14.20;99.90;;;;;;5092521;28;19916;-73
2021/08/21 03:04:12;;;;;;;;;;;14.20;99.90;;;;;;5093985;28;19916;-75
2021/08/21 03:06:37;;;;;;;;;;;14.10;99.90;;;;;;5096971;28;19924;-77
2021/08/21 03:09:03;;;;;;;;;;;14.10;99.90;;;;;;5075199;28;19917;-73
2021/08/21 03:11:29;;;;;;;;;;;14.00;99.90;;;;;;5095318;28;20007;-75
2021/08/21 03:13:54;;;;;;;;;;;14.10;99.90;;;;;;5091132;28;20153;-75
2021/08/21 03:16:20;;;;;;;;;;;14.10;99.90;;;;;;5094338;28;19915;-73
2021/08/21 03:18:46;;;;;;;;;;;14.10;99.90;;;;;;5096305;28;19959;-74
2021/08/21 03:21:11;;;;;;;;;;;14.10;99.90;;;;;;5076647;28;20366;-76
2021/08/21 03:23:38;;;;;;;;;;;14.20;99.90;;;;;;5089237;28;19916;-76
2021/08/21 03:26:04;;;;;;;;;;;14.20;99.90;;;;;;5071490;28;19920;-74
2021/08/21 03:28:30;;;;;;;;;;;14.20;99.90;;;;;;5080095;28;19923;-76
2021/08/21 03:30:55;;;;;;;;;;;14.30;99.90;;;;;;5090152;28;19921;-74
2021/08/21 03:33:21;;;;;;;;;;;14.30;99.90;;;;;;5088527;28;20250;-73
2021/08/21 03:35:47;;;;;;;;;;;14.20;99.90;;;;;;5091166;28;19916;-76
2021/08/21 03:38:12;;;;;;;;;;;14.30;99.90;;;;;;5076229;28;19915;-74
2021/08/21 03:40:38;;;;;;;;;;;14.30;99.90;;;;;;5090496;28;19916;-76
2021/08/21 03:43:04;;;;;;;;;;;14.40;99.90;;;;;;5074624;28;19926;-74
2021/08/21 03:45:29;;;;;;;;;;;14.40;99.90;;;;;;5090476;28;19920;-74
2021/08/21 03:47:55;;;;;;;;;;;14.40;99.90;;;;;;5088837;28;20390;-74
2021/08/21 03:50:20;;;;;;;;;;;14.40;99.90;;;;;;5092633;28;19912;-74
2021/08/21 03:52:46;;;;;;;;;;;14.40;99.90;;;;;;5095455;28;19912;-75
2021/08/21 03:55:12;;;;;;;;;;;14.50;99.90;;;;;;5095336;28;19962;-74
2021/08/21 03:57:37;;;;;;;;;;;14.50;99.90;;;;;;5093216;28;19923;-75
2021/08/21 04:00:04;;;;;;;;;;;14.50;99.90;;;;;;5088128;28;19913;-74
2021/08/21 04:02:29;;;;;;;;;;;14.60;99.90;;;;;;5093670;28;19912;-74
2021/08/21 04:04:55;;;;;;;;;;;14.60;99.90;;;;;;5094473;28;19920;-74
2021/08/21 04:07:20;;;;;;;;;;;14.60;99.90;;;;;;5089170;28;19942;-73
2021/08/21 04:09:46;;;;;;;;;;;14.70;99.90;;;;;;5094267;28;20268;-73
2021/08/21 04:12:16;;;;;;;;;;;14.70;99.90;;;;;;5090317;28;19920;-74
2021/08/21 04:14:41;;;;;;;;;;;14.80;99.90;;;;;;5087423;28;19916;-74
2021/08/21 04:17:07;;;;;;;;;;;14.80;99.90;;;;;;5095579;28;19969;-75
2021/08/21 04:19:32;;;;;;;;;;;14.80;99.90;;;;;;5095836;28;19938;-76
2021/08/21 04:21:58;;;;;;;;;;;14.80;99.90;;;;;;5091814;28;19916;-74
2021/08/21 04:24:24;;;;;;;;;;;14.80;99.90;;;;;;5090801;28;19912;-74
2021/08/21 04:26:49;;;;;;;;;;;14.70;99.90;;;;;;5090893;28;19912;-74
2021/08/21 04:29:15;;;;;;;;;;;14.60;99.90;;;;;;5093728;28;20247;-75
2021/08/21 04:31:40;;;;;;;;;;;14.60;99.90;;;;;;5093130;28;19955;-74
2021/08/21 04:34:06;;;;;;;;;;;14.60;99.90;;;;;;5090754;28;20315;-75
2021/08/21 04:36:31;;;;;;;;;;;14.60;99.90;;;;;;5092923;28;19939;-74
2021/08/21 04:38:57;;;;;;;;;;;14.60;99.90;;;;;;5090910;28;19924;-74
2021/08/21 04:41:22;;;;;;;;;;;14.60;99.90;;;;;;5068246;28;20281;-76
2021/08/21 04:43:48;;;;;;;;;;;14.50;99.90;;;;;;5086767;28;19913;-73
2021/08/21 04:46:14;;;;;;;;;;;14.50;99.90;;;;;;5088913;28;19912;-75
2021/08/21 04:48:39;;;;;;;;;;;14.50;99.90;;;;;;5088520;28;19908;-74
2021/08/21 04:51:05;;;;;;;;;;;14.50;99.90;;;;;;5087623;28;20496;-74
2021/08/21 04:53:31;;;;;;;;;;;14.50;99.90;;;;;;5075295;28;19920;-75
2021/08/21 04:55:56;;;;;;;;;;;14.50;99.90;;;;;;5092578;28;19923;-74
2021/08/21 04:58:22;;;;;;;;;;;14.50;99.90;;;;;;5090700;28;19920;-73
2021/08/21 05:00:47;;;;;;;;;;;14.50;99.90;;;;;;5093774;28;20277;-74
2021/08/21 05:03:13;;;;;;;;;;;14.50;99.90;;;;;;5094776;28;19908;-75
2021/08/21 05:05:38;;;;;;;;;;;14.60;99.90;;;;;;5088858;28;19923;-74
2021/08/21 05:08:04;;;;;;;;;;;14.60;99.90;;;;;;5072987;28;19908;-74
2021/08/21 05:10:30;;;;;;;;;;;14.60;99.90;;;;;;5072074;28;20231;-73
2021/08/21 05:12:55;;;;;;;;;;;14.70;99.90;;;;;;5087696;28;19920;-74
2021/08/21 05:15:21;;;;;;;;;;;14.70;99.90;;;;;;5091919;28;19973;-75
2021/08/21 05:17:48;;;;;;;;;;;14.70;99.90;;;;;;5075697;28;19966;-73
2021/08/21 05:20:19;;;;;;;;;;;14.70;99.90;;;;;;5090099;28;19950;-74
2021/08/21 05:25:11;;;;;;;;;;;14.70;99.90;;;;;;5090904;28;19920;-73
2021/08/21 05:27:37;;;;;;;;;;;14.70;99.90;;;;;;5092107;28;19912;-75
2021/08/21 05:30:04;;;;;;;;;;;14.60;99.90;;;;;;5088314;28;20317;-74
2021/08/21 05:32:30;;;;;;;;;;;14.60;99.90;;;;;;5090532;28;19995;-75
2021/08/21 05:34:55;;;;;;;;;;;14.60;99.90;;;;;;5089444;28;19920;-74
2021/08/21 05:37:21;;;;;;;;;;;14.70;99.90;;;;;;5059617;28;20219;-74
2021/08/21 05:39:46;;;;;;;;;;;14.80;99.90;;;;;;5077052;28;20156;-75
2021/08/21 05:42:12;;;;;;;;;;;14.80;99.90;;;;;;5072643;28;19916;-74
2021/08/21 05:44:37;;;;;;;;;;;14.90;99.90;;;;;;5081202;28;19931;-75
2021/08/21 05:47:03;;;;;;;;;;;14.90;99.90;;;;;;5074688;28;19912;-75
2021/08/21 05:49:29;;;;;;;;;;;15.00;99.90;;;;;;5092073;28;19915;-73
2021/08/21 05:51:55;;;;;;;;;;;15.00;99.90;;;;;;5093071;28;20343;-74
2021/08/21 05:54:20;;;;;;;;;;;15.00;99.90;;;;;;5093265;28;19916;-76
2021/08/21 05:56:46;;;;;;;;;;;15.10;99.90;;;;;;5065249;28;19916;-76
2021/08/21 05:59:11;;;;;;;;;;;15.20;99.90;;;;;;5083942;28;20208;-74
2021/08/21 06:01:38;;;;;;;;;;;15.20;99.90;;;;;;5090275;28;19942;-76
2021/08/21 06:04:07;;;;;;;;;;;15.30;99.90;;;;;;5081936;28;19927;-74
2021/08/21 06:06:33;;;;;;;;;;;15.30;99.90;;;;;;5072713;28;19912;-74
2021/08/21 06:08:59;;;;;;;;;;;15.40;99.90;;;;;;5069138;28;19963;-74
2021/08/21 06:11:24;;;;;;;;;;;15.50;99.90;;;;;;5071364;28;19955;-77
2021/08/21 06:13:50;;;;;;;;;;;15.50;99.90;;;;;;5092211;28;20230;-74
2021/08/21 06:16:16;;;;;;;;;;;15.50;99.90;;;;;;5095963;28;19916;-73
2021/08/21 06:18:42;;;;;;;;;;;15.50;99.90;;;;;;5076476;28;20010;-76
2021/08/21 06:21:07;;;;;;;;;;;15.60;99.90;;;;;;5092147;28;20015;-75
2021/08/21 06:23:33;;;;;;;;;;;15.60;99.90;;;;;;5091331;28;19919;-74
2021/08/21 06:25:58;;;;;;;;;;;15.80;99.90;;;;;;5092059;28;19955;-75
2021/08/21 06:28:24;;;;;;;;;;;15.90;99.90;;;;;;5090673;28;20192;-74
2021/08/21 06:30:49;;;;;;;;;;;15.90;99.90;;;;;;5092052;28;20332;-75
2021/08/21 06:33:15;;;;;;;;;;;16.00;99.90;;;;;;5074797;28;19916;-74
2021/08/21 06:35:41;;;;;;;;;;;16.00;99.90;;;;;;5092492;28;19944;-74
2021/08/21 06:38:06;;;;;;;;;;;16.10;99.90;;;;;;5091241;28;19924;-76
2021/08/21 06:40:32;;;;;;;;;;;16.20;99.90;;;;;;5090944;28;19955;-73
2021/08/21 06:42:57;;;;;;;;;;;16.20;99.90;;;;;;5092116;28;19912;-74
2021/08/21 06:45:23;;;;;;;;;;;16.30;99.90;;;;;;5089451;28;19923;-75
2021/08/21 06:47:48;;;;;;;;;;;16.30;99.90;;;;;;5090083;28;19916;-74
2021/08/21 06:50:14;;;;;;;;;;;16.40;99.90;;;;;;5074125;28;20018;-76
2021/08/21 06:52:39;;;;;;;;;;;16.50;99.90;;;;;;5096516;28;19920;-74
2021/08/21 06:55:05;;;;;;;;;;;16.50;99.90;;;;;;5090122;28;19916;-74
2021/08/21 06:57:31;;;;;;;;;;;16.60;99.90;;;;;;5086100;28;19920;-73
2021/08/21 06:59:57;;;;;;;;;;;16.60;99.90;;;;;;5088397;28;20265;-74
2021/08/21 07:02:24;;;;;;;;;;;16.70;99.90;;;;;;5071049;28;19912;-75
2021/08/21 07:04:49;;;;;;;;;;;16.80;99.90;;;;;;5091296;28;19916;-74
2021/08/21 07:07:15;;;;;;;;;;;16.80;99.90;;;;;;5073833;28;20667;-74
2021/08/21 07:09:41;;;;;;;;;;;16.90;99.90;;;;;;5094079;28;19935;-74
2021/08/21 07:12:06;;;;;;;;;;;16.90;99.90;;;;;;5090295;28;20317;-74
2021/08/21 07:14:32;;;;;;;;;;;17.00;99.90;;;;;;5088870;28;19960;-74
2021/08/21 07:16:58;;;;;;;;;;;17.10;99.90;;;;;;5090530;28;19920;-75
2021/08/21 07:19:23;;;;;;;;;;;17.20;99.90;;;;;;5073967;28;19916;-74
2021/08/21 07:21:53;;;;;;;;;;;17.30;99.90;;;;;;5090915;28;20211;-74
2021/08/21 07:24:22;;;;;;;;;;;17.30;99.90;;;;;;5089744;28;19916;-74
2021/08/21 07:26:47;;;;;;;;;;;17.40;99.90;;;;;;5089698;28;19912;-75
2021/08/21 07:29:13;;;;;;;;;;;17.50;99.90;;;;;;5091240;28;19912;-74
2021/08/21 07:31:39;;;;;;;;;;;17.60;99.90;;;;;;5074941;28;20285;-74
2021/08/21 07:34:04;;;;;;;;;;;17.70;99.90;;;;;;5078288;28;20257;-74
2021/08/21 07:36:30;;;;;;;;;;;17.70;99.90;;;;;;5095373;28;20322;-74
2021/08/21 07:38:56;;;;;;;;;;;17.70;99.90;;;;;;5095027;28;20345;-74
2021/08/21 07:41:21;;;;;;;;;;;17.80;99.90;;;;;;5095279;28;19919;-74
2021/08/21 07:43:47;;;;;;;;;;;17.80;99.90;;;;;;5095515;28;19991;-74
2021/08/21 07:46:13;;;;;;;;;;;17.90;99.90;;;;;;5078053;28;19931;-74
2021/08/21 07:48:38;;;;;;;;;;;18.10;99.90;;;;;;5072549;28;20260;-74
2021/08/21 07:51:04;;;;;;;;;;;18.20;99.90;;;;;;5062041;28;19912;-74
2021/08/21 07:53:30;;;;;;;;;;;18.30;99.90;;;;;;5101869;28;19930;-74
2021/08/21 07:55:56;;;;;;;;;;;18.40;99.90;;;;;;5088598;28;19920;-75
2021/08/21 07:58:21;;;;;;;;;;;18.40;99.90;;;;;;5093399;28;19923;-75
2021/08/21 08:00:47;;;;;;;;;;;18.40;99.90;;;;;;5093671;28;20373;-74
2021/08/21 08:03:14;;;;;;;;;;;18.40;99.90;;;;;;5091362;28;19912;-75
2021/08/21 08:05:41;;;;;;;;;;;18.30;99.90;;;;;;5093638;28;19919;-74
2021/08/21 08:08:06;;;;;;;;;;;18.30;99.90;;;;;;5075236;28;19920;-74
2021/08/21 08:10:32;;;;;;;;;;;18.30;99.90;;;;;;5094769;28;20285;-77
2021/08/21 08:12:58;;;;;;;;;;;18.30;99.90;;;;;;5092070;28;19916;-76
2021/08/21 08:15:23;;;;;;;;;;;18.40;99.90;;;;;;5093398;28;19947;-74
2021/08/21 08:17:49;;;;;;;;;;;18.40;99.90;;;;;;5093493;28;20010;-75
2021/08/21 08:20:15;;;;;;;;;;;18.40;99.90;;;;;;5075806;28;19916;-75
2021/08/21 08:22:40;;;;;;;;;;;18.40;99.90;;;;;;5094147;28;20260;-74
2021/08/21 08:25:07;;;;;;;;;;;18.40;99.90;;;;;;5075564;28;19920;-75
2021/08/21 08:27:33;;;;;;;;;;;18.40;99.90;;;;;;5094300;28;19994;-74
2021/08/21 08:29:58;;;;;;;;;;;18.40;99.90;;;;;;5093243;28;19953;-74
2021/08/21 08:32:24;;;;;;;;;;;18.40;99.90;;;;;;5092694;28;19912;-74
2021/08/21 08:34:49;;;;;;;;;;;18.40;99.90;;;;;;5072540;28;19988;-74
2021/08/21 08:37:15;;;;;;;;;;;18.40;99.90;;;;;;5087298;28;19916;-74
2021/08/21 08:39:41;;;;;;;;;;;18.40;99.90;;;;;;5092565;28;19920;-75
2021/08/21 08:42:08;;;;;;;;;;;18.50;99.90;;;;;;5093422;28;19972;-75
2021/08/21 08:44:34;;;;;;;;;;;18.60;99.90;;;;;;5075502;28;19916;-74
2021/08/21 08:47:00;;;;;;;;;;;18.60;99.90;;;;;;5095634;28;20192;-74
2021/08/21 08:49:26;;;;;;;;;;;18.70;99.90;;;;;;5089243;28;19955;-74
2021/08/21 08:51:52;;;;;;;;;;;18.70;99.90;;;;;;5088139;28;19966;-74
2021/08/21 08:54:17;;;;;;;;;;;18.80;99.90;;;;;;5099249;28;19927;-74
2021/08/21 08:56:43;;;;;;;;;;;18.90;99.90;;;;;;5098048;28;20342;-74
2021/08/21 08:59:08;;;;;;;;;;;18.90;99.90;;;;;;5107790;28;19959;-74
2021/08/21 09:01:34;;;;;;;;;;;19.00;99.90;;;;;;5092624;28;19912;-74
2021/08/21 09:04:19;;;;;;;;;;;19.00;99.90;;;;;;5081335;28;19919;-74
2021/08/21 09:06:45;;;;;;;;;;;19.10;99.90;;;;;;5089240;28;19914;-74
2021/08/21 09:09:12;;;;;;;;;;;19.20;99.90;;;;;;5092269;28;20015;-74
2021/08/21 09:11:43;;;;;;;;;;;19.30;99.90;;;;;;5076469;28;20015;-74
2021/08/21 09:14:22;;;;;;;;;;;19.60;99.90;;;;;;5084183;28;19920;-74
2021/08/21 09:16:49;;;;;;;;;;;20.00;99.90;;;;;;5067948;28;19970;-74
2021/08/21 09:19:25;;;;;;;;;;;20.30;99.90;;;;;;5092202;28;19946;-74
2021/08/21 09:22:05;;;;;;;;;;;20.50;99.90;;;;;;5090062;28;20318;-74
2021/08/21 09:24:32;;;;;;;;;;;20.70;99.90;;;;;;5093591;28;19916;-75
2021/08/21 09:27:13;;;;;;;;;;;21.00;99.90;;;;;;5084282;28;20315;-74
2021/08/21 09:29:38;;;;;;;;;;;21.20;99.90;;;;;;5085051;28;19952;-74
2021/08/21 09:32:08;;;;;;;;;;;21.40;99.90;;;;;;5080724;28;20350;-74
2021/08/21 09:34:34;;;;;;;;;;;21.40;99.90;;;;;;5082569;28;19921;-74
2021/08/21 09:36:59;;;;;;;;;;;21.50;99.90;;;;;;5073201;28;20243;-74
2021/08/21 09:39:37;;;;;;;;;;;21.60;99.90;;;;;;5068992;28;19916;-74
2021/08/21 09:42:04;;;;;;;;;;;21.70;99.90;;;;;;5092486;28;19946;-74
2021/08/21 09:44:35;;;;;;;;;;;21.80;99.90;;;;;;5081217;28;20126;-74
2021/08/21 09:47:16;;;;;;;;;;;21.80;99.90;;;;;;5071944;28;20019;-74
2021/08/21 09:49:43;;;;;;;;;;;21.90;99.90;;;;;;5071979;28;19912;-75
2021/08/21 09:52:14;;;;;;;;;;;21.90;99.90;;;;;;5041523;28;19970;-75
2021/08/21 09:54:42;;;;;;;;;;;21.90;99.90;;;;;;5069824;28;20002;-75
2021/08/21 09:57:10;;;;;;;;;;;21.90;99.90;;;;;;5071702;28;19991;-75
2021/08/21 09:59:40;;;;;;;;;;;22.00;99.90;;;;;;5072186;28;20015;-75
2021/08/21 10:02:06;;;;;;;;;;;22.00;99.90;;;;;;5076184;28;19919;-75
2021/08/21 10:04:33;;;;;;;;;;;21.90;99.90;;;;;;5071808;28;19927;-75
2021/08/21 10:06:58;;;;;;;;;;;22.00;99.90;;;;;;5055604;28;19925;-74
2021/08/21 10:09:25;;;;;;;;;;;22.20;99.90;;;;;;5073638;28;19924;-74
2021/08/21 10:11:52;;;;;;;;;;;22.30;99.90;;;;;;5073750;28;20323;-75
2021/08/21 10:14:23;;;;;;;;;;;22.20;99.90;;;;;;5070473;28;19922;-74
2021/08/21 10:16:49;;;;;;;;;;;22.30;99.90;;;;;;5070677;28;19917;-75
2021/08/21 10:19:17;;;;;;;;;;;22.50;99.90;;;;;;5053828;28;19921;-75
2021/08/21 10:21:47;;;;;;;;;;;22.60;99.90;;;;;;5053118;28;19931;-76
2021/08/21 10:24:13;;;;;;;;;;;22.70;99.90;;;;;;5061953;28;19932;-75
2021/08/21 10:26:41;;;;;;;;;;;22.70;99.90;;;;;;5043911;28;19917;-75
2021/08/21 10:29:11;;;;;;;;;;;22.70;99.90;;;;;;5070888;28;19919;-75
2021/08/21 10:31:44;;;;;;;;;;;22.80;99.90;;;;;;5074825;28;19917;-76
2021/08/21 10:34:10;;;;;;;;;;;22.90;99.90;;;;;;5057074;28;19920;-75
2021/08/21 10:36:42;;;;;;;;;;;23.00;99.90;;;;;;5065129;28;19913;-75
2021/08/21 10:39:18;;;;;;;;;;;23.00;99.90;;;;;;5045528;28;19994;-76
2021/08/21 10:41:44;;;;;;;;;;;23.20;99.90;;;;;;5052201;28;19908;-75
2021/08/21 10:44:10;;;;;;;;;;;23.40;99.90;;;;;;5059325;28;19951;-75
2021/08/21 10:46:36;;;;;;;;;;;23.40;99.90;;;;;;5092668;28;20023;-76
2021/08/21 10:49:05;;;;;;;;;;;23.50;99.90;;;;;;5094501;28;19962;-78
2021/08/21 10:51:40;;;;;;;;;;;23.60;99.90;;;;;;5074506;28;19922;-76
2021/08/21 10:54:18;;;;;;;;;;;23.70;99.90;;;;;;5092433;28;19916;-76
2021/08/21 10:56:44;;;;;;;;;;;23.80;99.90;;;;;;5070622;28;19912;-80
2021/08/21 10:59:09;;;;;;;;;;;23.90;99.90;;;;;;5090395;28;20227;-76
2021/08/21 11:01:35;;;;;;;;;;;23.90;99.90;;;;;;5090010;28;19912;-76
2021/08/21 11:04:00;;;;;;;;;;;24.00;99.90;;;;;;5072613;28;19920;-76
2021/08/21 11:06:33;;;;;;;;;;;24.00;99.90;;;;;;5091718;28;20364;-76
2021/08/21 11:09:00;;;;;;;;;;;23.90;99.90;;;;;;5078225;28;19916;-75
2021/08/21 11:11:39;;;;;;;;;;;23.80;99.90;;;;;;5079764;28;19916;-78
2021/08/21 11:14:24;;;;;;;;;;;23.70;99.90;;;;;;5095669;28;19995;-77
2021/08/21 11:16:54;;;;;;;;;;;23.70;99.90;;;;;;5095092;28;20384;-77
2021/08/21 11:19:39;;;;;;;;;;;23.70;99.90;;;;;;5095039;28;19916;-77
2021/08/21 11:22:18;;;;;;;;;;;23.70;99.90;;;;;;5078280;28;19990;-78
2021/08/21 11:24:52;;;;;;;;;;;23.70;99.90;;;;;;5076145;28;20022;-77
2021/08/21 11:27:28;;;;;;;;;;;23.80;99.90;;;;;;5075003;28;19916;-76
2021/08/21 11:32:32;;;;;;;;;;;23.80;99.90;;;;;;5092409;28;20386;-77
2021/08/21 11:34:57;;;;;;;;;;;23.90;99.90;;;;;;5093183;28;19919;-76
2021/08/21 11:37:23;;;;;;;;;;;23.90;99.90;;;;;;5078886;28;19912;-77
2021/08/21 11:39:55;;;;;;;;;;;23.90;99.90;;;;;;5096299;28;19959;-77
2021/08/21 11:42:21;;;;;;;;;;;24.00;99.90;;;;;;5095247;28;19923;-77
2021/08/21 11:44:54;;;;;;;;;;;24.00;99.90;;;;;;5064799;28;19928;-77
2021/08/21 11:47:28;;;;;;;;;;;23.90;99.90;;;;;;5093893;28;19948;-78
2021/08/21 11:49:54;;;;;;;;;;;23.90;99.90;;;;;;5075126;28;19991;-79
2021/08/21 11:52:25;;;;;;;;;;;23.90;99.90;;;;;;5096030;28;19912;-77
2021/08/21 11:54:52;;;;;;;;;;;23.90;99.90;;;;;;5075402;28;19923;-77
2021/08/21 11:57:18;;;;;;;;;;;24.00;99.90;;;;;;5077869;28;19916;-76
2021/08/21 11:59:43;;;;;;;;;;;24.00;99.90;;;;;;5090503;28;19978;-77
2021/08/21 12:02:13;;;;;;;;;;;24.00;99.90;;;;;;5095260;28;19912;-78
2021/08/21 12:04:54;;;;;;;;;;;24.00;99.90;;;;;;5093814;28;19919;-76
2021/08/21 12:07:33;;;;;;;;;;;23.90;99.90;;;;;;5095736;28;19912;-78
2021/08/21 12:09:59;;;;;;;;;;;23.90;99.90;;;;;;5076625;28;20072;-78
2021/08/21 12:12:25;;;;;;;;;;;23.90;99.90;;;;;;5095704;28;19919;-77
2021/08/21 12:14:51;;;;;;;;;;;23.80;99.90;;;;;;5096282;28;20373;-78
2021/08/21 12:17:16;;;;;;;;;;;23.80;99.90;;;;;;5092919;28;20204;-77
2021/08/21 12:19:42;;;;;;;;;;;23.80;99.90;;;;;;5075841;28;19924;-77
2021/08/21 12:22:09;;;;;;;;;;;23.70;99.90;;;;;;5094533;28;20608;-77
2021/08/21 12:24:34;;;;;;;;;;;23.70;99.90;;;;;;5095378;28;20002;-77
2021/08/21 12:27:00;;;;;;;;;;;23.70;99.90;;;;;;5094240;28;20302;-77
2021/08/21 12:29:32;;;;;;;;;;;23.70;99.90;;;;;;5074712;28;19959;-76
2021/08/21 12:31:59;;;;;;;;;;;23.70;99.90;;;;;;5094369;28;19923;-77
2021/08/21 12:34:25;;;;;;;;;;;23.70;99.90;;;;;;5093993;28;19920;-78
2021/08/21 12:36:53;;;;;;;;;;;23.70;99.90;;;;;;5093989;28;19923;-78
2021/08/21 12:39:18;;;;;;;;;;;23.70;99.90;;;;;;5094670;28;19924;-78
2021/08/21 12:42:02;;;;;;;;;;;23.80;99.90;;;;;;5074845;28;19935;-76
2021/08/21 12:44:32;;;;;;;;;;;23.80;99.90;;;;;;5076115;28;19963;-77
2021/08/21 12:46:59;;;;;;;;;;;23.80;99.90;;;;;;5094381;28;19974;-78
2021/08/21 12:49:29;;;;;;;;;;;23.80;99.90;;;;;;5075571;28;20226;-78
2021/08/21 12:51:57;;;;;;;;;;;23.80;99.90;;;;;;5093878;28;19935;-77
2021/08/21 12:54:27;;;;;;;;;;;23.70;99.90;;;;;;5073326;28;19916;-78
2021/08/21 12:57:04;;;;;;;;;;;23.70;99.90;;;;;;5080471;28;21066;-77
2021/08/21 12:59:30;;;;;;;;;;;23.70;99.90;;;;;;5091852;28;19916;-78
2021/08/21 13:02:03;;;;;;;;;;;23.60;99.90;;;;;;5105279;28;19937;-77
2021/08/21 13:04:29;;;;;;;;;;;23.60;99.90;;;;;;5093670;28;19954;-77
2021/08/21 13:06:58;;;;;;;;;;;23.60;99.90;;;;;;5089775;28;19951;-77
2021/08/21 13:09:24;;;;;;;;;;;23.50;99.90;;;;;;5076373;28;19989;-77
2021/08/21 13:11:49;;;;;;;;;;;23.50;99.90;;;;;;5075332;28;19948;-77
2021/08/21 13:14:15;;;;;;;;;;;23.50;99.90;;;;;;5075447;28;19922;-77
2021/08/21 13:16:43;;;;;;;;;;;23.40;99.90;;;;;;5075339;28;19916;-78
2021/08/21 13:19:09;;;;;;;;;;;23.40;99.90;;;;;;5092382;28;19927;-77
2021/08/21 13:21:34;;;;;;;;;;;23.50;99.90;;;;;;5074331;28;19920;-78
2021/08/21 13:24:01;;;;;;;;;;;23.60;99.90;;;;;;5073458;28;20584;-79
2021/08/21 13:26:28;;;;;;;;;;;23.60;99.90;;;;;;5094038;28;19912;-79
2021/08/21 13:28:54;;;;;;;;;;;23.60;99.90;;;;;;5092796;28;19943;-78
2021/08/21 13:31:20;;;;;;;;;;;23.60;99.90;;;;;;5092357;28;20311;-78
2021/08/21 13:33:47;;;;;;;;;;;23.60;99.90;;;;;;5074882;28;20006;-78
2021/08/21 13:36:12;;;;;;;;;;;23.60;99.90;;;;;;5092767;28;19981;-77
2021/08/21 13:38:38;;;;;;;;;;;23.60;99.90;;;;;;5074456;28;20026;-78
2021/08/21 13:41:05;;;;;;;;;;;23.60;99.90;;;;;;5072795;28;19920;-77
2021/08/21 13:43:31;;;;;;;;;;;23.60;99.90;;;;;;5092737;28;19916;-78
2021/08/21 13:45:57;;;;;;;;;;;23.60;99.90;;;;;;5071982;28;19924;-78
2021/08/21 13:48:24;;;;;;;;;;;23.60;99.90;;;;;;5070385;28;19950;-77
2021/08/21 13:50:50;;;;;;;;;;;23.60;99.90;;;;;;5070548;28;19917;-79
2021/08/21 13:53:18;;;;;;;;;;;23.70;99.90;;;;;;5065829;28;20295;-79
2021/08/21 13:55:49;;;;;;;;;;;23.70;99.90;;;;;;5066246;28;19912;-79
2021/08/21 13:58:33;;;;;;;;;;;23.60;99.90;;;;;;5065051;28;19916;-78
2021/08/21 14:01:00;;;;;;;;;;;23.60;99.90;;;;;;5054709;28;19924;-79
2021/08/21 14:03:42;;;;;;;;;;;23.60;99.90;;;;;;5072583;28;19913;-79
2021/08/21 14:06:08;;;;;;;;;;;23.50;99.90;;;;;;5071207;28;19973;-77
2021/08/21 14:08:46;;;;;;;;;;;23.50;99.90;;;;;;5071373;28;20291;-77
2021/08/21 14:11:11;;;;;;;;;;;23.50;99.90;;;;;;5071993;28;19916;-77
2021/08/21 14:13:39;;;;;;;;;;;23.50;99.90;;;;;;5074437;28;20326;-77
2021/08/21 14:16:06;;;;;;;;;;;23.40;99.90;;;;;;5056226;28;19916;-77
2021/08/21 14:18:32;;;;;;;;;;;23.40;99.90;;;;;;5070253;28;19970;-76
2021/08/21 14:21:00;;;;;;;;;;;23.30;99.90;;;;;;5072662;28;19916;-77